Time;durP1;ratioP1;P1;durP2;ratioP2;P2;SDS_P1;SDS_P2;PMS_P1;PMS_P2;Temp;Humidity;BMP_temperature;BMP_pressure;BME280_temperature;BME280_humidity;BME280_pressure;Samples;Min_cycle;Max_cycle;Signal;HPM_P1;HPM_P2
2023/09/14 00:00:55;;;;;;;8.70;1.95;;;;;;;9.29;100.00;101444.47;5036915;28;20780;-78
2023/09/14 00:03:28;;;;;;;8.37;2.00;;;;;;;9.24;100.00;101444.41;5045958;28;20426;-78
2023/09/14 00:06:03;;;;;;;7.65;2.13;;;;;;;9.17;100.00;101436.44;5033726;28;20419;-79
2023/09/14 00:08:31;;;;;;;8.93;2.15;;;;;;;9.16;100.00;101436.72;5023819;28;20436;-78
2023/09/14 00:11:03;;;;;;;7.95;1.95;;;;;;;9.17;100.00;101435.66;5028870;28;20412;-78
2023/09/14 00:13:36;;;;;;;7.53;2.00;;;;;;;9.14;100.00;101436.13;5031331;28;20426;-78
2023/09/14 00:16:05;;;;;;;9.20;2.13;;;;;;;9.11;100.00;101442.88;5029510;28;20451;-78
2023/09/14 00:18:38;;;;;;;8.17;2.43;;;;;;;9.06;100.00;101448.25;5026907;28;20495;-78
2023/09/14 00:21:06;;;;;;;6.78;2.00;;;;;;;9.07;100.00;101438.22;5029059;28;20465;-78
2023/09/14 00:23:39;;;;;;;9.32;2.17;;;;;;;9.08;100.00;101448.81;5029744;28;20430;-77
2023/09/14 00:26:15;;;;;;;8.90;2.10;;;;;;;9.07;100.00;101452.59;5030718;28;20425;-79
2023/09/14 00:28:48;;;;;;;5.47;1.77;;;;;;;9.02;100.00;101445.22;5029397;28;20426;-80
2023/09/14 00:31:21;;;;;;;8.20;2.33;;;;;;;9.04;100.00;101439.53;5029420;28;20407;-78
2023/09/14 00:33:55;;;;;;;9.45;2.13;;;;;;;9.01;100.00;101446.28;5030871;28;20423;-78
2023/09/14 00:36:23;;;;;;;7.25;2.10;;;;;;;9.02;100.00;101447.94;5030633;28;20430;-78
2023/09/14 00:38:56;;;;;;;6.93;2.15;;;;;;;8.94;100.00;101442.13;5046320;28;20423;-78
2023/09/14 00:41:31;;;;;;;10.07;2.20;;;;;;;8.91;100.00;101448.84;5030753;28;20894;-78
2023/09/14 00:43:59;;;;;;;5.88;2.00;;;;;;;8.88;100.00;101454.78;5028797;28;20422;-78
2023/09/14 00:46:33;;;;;;;9.40;2.53;;;;;;;8.88;100.00;101448.53;5025692;28;20433;-79
2023/09/14 00:49:02;;;;;;;9.87;2.40;;;;;;;8.86;100.00;101456.91;5030469;28;20515;-78
2023/09/14 00:51:35;;;;;;;7.43;2.50;;;;;;;8.90;100.00;101460.78;5028366;28;20411;-79
2023/09/14 00:54:08;;;;;;;8.18;2.20;;;;;;;8.84;100.00;101459.06;5027097;28;20434;-78
2023/09/14 00:56:42;;;;;;;9.43;2.30;;;;;;;8.82;100.00;101459.31;5028946;28;20419;-78
2023/09/14 00:59:16;;;;;;;5.43;2.10;;;;;;;8.79;100.00;101461.72;5026924;28;20427;-79
2023/09/14 01:01:44;;;;;;;7.30;2.20;;;;;;;8.75;100.00;101458.66;5028615;28;20427;-78
2023/09/14 01:04:12;;;;;;;10.03;2.30;;;;;;;8.73;100.00;101466.25;5043164;28;21184;-78
2023/09/14 01:06:41;;;;;;;7.40;2.40;;;;;;;8.72;100.00;101466.50;5028930;28;20411;-78
2023/09/14 01:09:16;;;;;;;7.30;2.28;;;;;;;8.64;100.00;101460.38;5028397;28;20407;-77
2023/09/14 01:11:46;;;;;;;10.18;2.30;;;;;;;8.64;100.00;101467.72;5029705;28;20406;-77
2023/09/14 01:14:26;;;;;;;7.22;2.20;;;;;;;8.58;100.00;101463.28;5035243;28;20427;-79
2023/09/14 01:17:09;;;;;;;10.43;2.30;;;;;;;8.60;100.00;101469.28;5028551;28;20423;-78
2023/09/14 01:19:46;;;;;;;10.43;2.30;;;;;;;8.57;100.00;101462.44;5025262;28;20779;-80
2023/09/14 01:22:30;;;;;;;8.13;2.30;;;;;;;8.57;100.00;101475.22;5032841;28;20434;-77
2023/09/14 01:25:09;;;;;;;12.57;2.60;;;;;;;8.52;100.00;101481.38;5032367;28;20748;-78
2023/09/14 01:27:44;;;;;;;8.40;2.37;;;;;;;8.58;100.00;101468.72;5030302;28;20419;-79
2023/09/14 01:30:17;;;;;;;7.07;2.25;;;;;;;8.53;100.00;101468.63;5030903;28;20433;-77
2023/09/14 01:32:50;;;;;;;10.18;2.20;;;;;;;8.42;100.00;101468.41;5032905;28;20422;-78
2023/09/14 01:35:24;;;;;;;8.88;2.30;;;;;;;8.45;100.00;101459.84;5028928;28;20425;-78
2023/09/14 01:37:58;;;;;;;10.55;2.50;;;;;;;8.43;100.00;101467.34;5030431;28;20427;-78
2023/09/14 01:40:27;;;;;;;8.10;2.25;;;;;;;8.48;100.00;101467.47;5032332;28;20423;-79
2023/09/14 01:43:03;;;;;;;8.98;2.20;;;;;;;8.45;100.00;101470.69;5033955;28;20422;-78
2023/09/14 01:45:37;;;;;;;6.80;2.08;;;;;;;8.43;100.00;101480.09;5024663;28;20411;-77
2023/09/14 01:48:07;;;;;;;9.85;2.50;;;;;;;8.33;100.00;101478.84;5033762;28;20744;-78
2023/09/14 01:50:40;;;;;;;5.32;2.28;;;;;;;8.32;100.00;101479.09;5040498;28;20776;-78
2023/09/14 01:53:13;;;;;;;11.25;2.10;;;;;;;8.31;100.00;101481.00;5030357;28;20423;-81
2023/09/14 01:55:46;;;;;;;10.43;2.20;;;;;;;8.33;100.00;101473.44;5034989;28;20795;-78
2023/09/14 01:58:21;;;;;;;7.45;2.10;;;;;;;8.33;100.00;101462.59;5031283;28;20426;-77
2023/09/14 02:00:56;;;;;;;7.22;2.17;;;;;;;8.29;100.00;101466.84;5029224;28;20426;-77
2023/09/14 02:03:29;;;;;;;7.00;2.05;;;;;;;8.31;100.00;101467.44;5033287;28;20407;-77
2023/09/14 02:06:02;;;;;;;8.70;2.33;;;;;;;8.24;100.00;101474.88;5032035;28;20438;-78
2023/09/14 02:08:36;;;;;;;8.38;2.22;;;;;;;8.12;100.00;101466.00;5036421;28;20426;-77
2023/09/14 02:11:09;;;;;;;5.88;2.08;;;;;;;8.15;100.00;101479.09;5031956;28;20415;-77
2023/09/14 02:13:38;;;;;;;8.43;1.97;;;;;;;8.07;100.00;101474.06;5033172;28;20411;-78
2023/09/14 02:16:07;;;;;;;8.13;2.20;;;;;;;8.09;100.00;101480.88;5031998;28;20408;-77
2023/09/14 02:18:40;;;;;;;6.45;1.92;;;;;;;8.11;100.00;101464.38;5024949;28;20433;-78
2023/09/14 02:21:08;;;;;;;6.45;1.92;;;;;;;8.13;100.00;101475.78;5031985;28;20415;-78
2023/09/14 02:23:41;;;;;;;10.15;2.20;;;;;;;8.17;100.00;101471.53;5023423;28;20426;-78
2023/09/14 02:26:14;;;;;;;5.53;2.22;;;;;;;8.10;100.00;101465.44;5035543;28;20544;-77
2023/09/14 02:28:49;;;;;;;7.45;2.20;;;;;;;8.01;100.00;101473.16;5031154;28;20423;-78
2023/09/14 02:31:22;;;;;;;8.27;2.10;;;;;;;7.89;100.00;101478.59;5029233;28;20418;-77
2023/09/14 02:33:51;;;;;;;7.60;2.15;;;;;;;7.91;100.00;101481.91;5030310;28;20758;-79
2023/09/14 02:36:19;;;;;;;8.35;2.13;;;;;;;7.95;100.00;101483.03;5030817;28;20771;-78
2023/09/14 02:38:47;;;;;;;6.80;1.97;;;;;;;7.96;100.00;101471.16;5031508;28;20463;-79
2023/09/14 02:41:20;;;;;;;7.68;1.98;;;;;;;8.00;100.00;101474.22;5031174;28;20427;-78
2023/09/14 02:43:49;;;;;;;8.40;2.13;;;;;;;7.92;100.00;101478.13;5031390;28;20423;-77
2023/09/14 02:46:23;;;;;;;8.25;2.17;;;;;;;7.97;100.00;101472.00;5026631;28;20419;-80
2023/09/14 02:48:56;;;;;;;7.20;2.20;;;;;;;7.92;100.00;101482.72;5027864;28;20414;-77
2023/09/14 02:51:24;;;;;;;7.03;2.40;;;;;;;7.75;100.00;101480.78;5046918;28;20418;-78
2023/09/14 02:53:52;;;;;;;7.53;2.40;;;;;;;7.80;100.00;101486.31;5030191;28;20419;-78
2023/09/14 02:56:25;;;;;;;6.68;1.92;;;;;;;7.86;100.00;101481.81;5031177;28;20421;-78
2023/09/14 02:59:00;;;;;;;9.07;2.30;;;;;;;7.73;100.00;101484.78;5038626;28;20430;-78
2023/09/14 03:01:29;;;;;;;8.18;1.95;;;;;;;7.70;100.00;101486.09;5030692;28;20423;-78
2023/09/14 03:03:57;;;;;;;8.40;2.40;;;;;;;7.78;100.00;101485.72;5028532;28;20462;-77
2023/09/14 03:06:30;;;;;;;8.87;2.20;;;;;;;7.85;100.00;101480.16;5030012;28;20426;-78
2023/09/14 03:09:03;;;;;;;10.18;2.35;;;;;;;7.78;100.00;101488.44;5031668;28;20768;-78
2023/09/14 03:11:37;;;;;;;10.93;2.17;;;;;;;7.73;100.00;101485.59;5023715;28;20423;-77
2023/09/14 03:14:07;;;;;;;9.10;2.28;;;;;;;7.75;100.00;101499.75;5032253;28;20407;-78
2023/09/14 03:16:35;;;;;;;5.38;2.05;;;;;;;7.76;100.00;101495.16;5030340;28;20422;-77
2023/09/14 03:19:09;;;;;;;6.93;1.80;;;;;;;7.73;100.00;101496.44;5031446;28;20419;-78
2023/09/14 03:21:37;;;;;;;7.40;2.10;;;;;;;7.75;100.00;101502.47;5029582;28;20426;-77
2023/09/14 03:24:06;;;;;;;8.40;2.20;;;;;;;7.66;100.00;101506.59;5031976;28;20419;-78
2023/09/14 03:26:39;;;;;;;5.10;1.80;;;;;;;7.65;100.00;101507.66;5027673;28;20423;-79
2023/09/14 03:29:09;;;;;;;8.55;2.30;;;;;;;7.71;100.00;101508.63;5030390;28;20411;-77
2023/09/14 03:31:37;;;;;;;6.03;2.17;;;;;;;7.75;100.00;101507.88;5030636;28;20418;-78
2023/09/14 03:34:07;;;;;;;6.90;1.90;;;;;;;7.73;100.00;101509.19;5028388;28;20768;-77
2023/09/14 03:36:36;;;;;;;6.43;1.98;;;;;;;7.61;100.00;101511.91;5030269;28;20431;-79
2023/09/14 03:39:11;;;;;;;9.50;2.08;;;;;;;7.65;100.00;101513.06;5031660;28;20437;-77
2023/09/14 03:41:40;;;;;;;9.02;2.13;;;;;;;7.66;100.00;101512.03;5029076;28;20437;-78
2023/09/14 03:44:14;;;;;;;8.30;2.05;;;;;;;7.56;100.00;101515.34;5040943;28;21233;-77
2023/09/14 03:46:47;;;;;;;6.15;1.90;;;;;;;7.64;100.00;101520.38;5030985;28;20412;-78
2023/09/14 03:49:20;;;;;;;6.20;2.10;;;;;;;7.60;100.00;101516.50;5029432;28;21219;-77
2023/09/14 03:51:48;;;;;;;8.85;1.92;;;;;;;7.54;100.00;101522.06;5024839;28;20424;-78
2023/09/14 03:54:17;;;;;;;6.40;1.90;;;;;;;7.53;100.00;101518.53;5030023;28;20411;-77
2023/09/14 03:56:45;;;;;;;6.27;2.00;;;;;;;7.53;100.00;101517.72;5041651;28;20496;-77
2023/09/14 03:59:15;;;;;;;7.47;2.00;;;;;;;7.46;100.00;101517.84;5030342;28;20918;-78
2023/09/14 04:01:48;;;;;;;6.75;2.08;;;;;;;7.59;100.00;101517.56;5028869;28;20422;-78
2023/09/14 04:04:21;;;;;;;6.47;2.10;;;;;;;7.41;100.00;101518.53;5028887;28;20430;-78
2023/09/14 04:06:54;;;;;;;7.10;2.13;;;;;;;7.44;100.00;101512.69;5028967;28;20426;-77
2023/09/14 04:09:29;;;;;;;8.43;2.25;;;;;;;7.39;100.00;101512.56;5027601;28;20423;-77
2023/09/14 04:12:02;;;;;;;6.93;2.10;;;;;;;7.32;100.00;101517.28;5044106;28;20454;-77
2023/09/14 04:14:32;;;;;;;7.43;2.10;;;;;;;7.44;100.00;101520.81;5030502;28;20732;-77
2023/09/14 04:17:05;;;;;;;7.85;2.33;;;;;;;7.34;100.00;101520.56;5030078;28;20433;-78
2023/09/14 04:19:43;;;;;;;6.65;2.00;;;;;;;7.28;100.00;101519.63;5044117;28;20423;-77
2023/09/14 04:22:11;;;;;;;6.03;2.22;;;;;;;7.34;100.00;101515.16;5028853;28;20422;-76
2023/09/14 04:24:44;;;;;;;8.70;2.30;;;;;;;7.35;100.00;101530.34;5030171;28;20434;-77
2023/09/14 04:27:18;;;;;;;6.77;2.33;;;;;;;7.42;100.00;101530.22;5042360;28;21210;-76
2023/09/14 04:29:53;;;;;;;6.75;1.90;;;;;;;7.48;100.00;101530.09;5025871;28;20426;-77
2023/09/14 04:32:26;;;;;;;6.95;2.28;;;;;;;7.43;100.00;101529.13;5045503;28;20461;-77
2023/09/14 04:34:54;;;;;;;6.45;2.20;;;;;;;7.35;100.00;101524.94;5045259;28;20502;-77
2023/09/14 04:37:22;;;;;;;8.90;2.42;;;;;;;7.30;100.00;101525.63;5030095;28;20422;-77
2023/09/14 04:39:56;;;;;;;6.87;2.30;;;;;;;7.27;100.00;101517.97;5029624;28;20524;-78
2023/09/14 04:42:24;;;;;;;9.68;2.08;;;;;;;7.35;100.00;101519.50;5032048;28;20433;-77
2023/09/14 04:44:58;;;;;;;8.00;2.00;;;;;;;7.27;100.00;101523.41;5045370;28;20450;-77
2023/09/14 04:47:27;;;;;;;8.23;2.15;;;;;;;7.28;100.00;101519.63;5023710;28;20433;-78
2023/09/14 04:49:55;;;;;;;5.60;2.30;;;;;;;7.26;100.00;101521.72;5043108;28;20427;-76
2023/09/14 04:52:29;;;;;;;5.70;2.37;;;;;;;7.25;100.00;101530.09;5028356;28;20537;-78
2023/09/14 04:54:57;;;;;;;6.05;2.40;;;;;;;7.18;100.00;101527.53;5037080;28;20426;-77
2023/09/14 04:57:25;;;;;;;6.95;1.90;;;;;;;7.24;100.00;101531.19;5048320;28;20433;-78
2023/09/14 04:59:53;;;;;;;6.03;2.08;;;;;;;7.21;100.00;101523.50;5034076;28;20424;-76
2023/09/14 05:02:23;;;;;;;7.47;2.15;;;;;;;7.21;100.00;101526.22;5045433;28;20446;-77
2023/09/14 05:04:57;;;;;;;6.07;2.30;;;;;;;7.24;100.00;101533.88;5039520;28;20429;-77
2023/09/14 05:07:25;;;;;;;8.35;2.15;;;;;;;7.25;100.00;101541.78;5031638;28;20445;-77
2023/09/14 05:09:53;;;;;;;5.38;2.08;;;;;;;7.29;100.00;101542.09;5032365;28;20434;-78
2023/09/14 05:12:22;;;;;;;10.05;2.38;;;;;;;7.26;100.00;101539.88;5047999;28;20437;-76
2023/09/14 05:14:52;;;;;;;6.22;2.10;;;;;;;7.25;100.00;101543.63;5032059;28;20508;-77
2023/09/14 05:17:26;;;;;;;4.93;2.20;;;;;;;7.32;100.00;101541.66;5047385;28;20426;-77
2023/09/14 05:19:59;;;;;;;6.57;2.05;;;;;;;7.41;100.00;101534.78;5047982;28;20768;-78
2023/09/14 05:22:33;;;;;;;6.65;2.03;;;;;;;7.47;100.00;101542.00;5032878;28;20767;-80
2023/09/14 05:25:03;;;;;;;5.70;2.20;;;;;;;7.61;100.00;101539.00;5031453;28;20476;-76
2023/09/14 05:27:38;;;;;;;7.88;2.22;;;;;;;7.70;100.00;101545.69;5034041;28;20888;-76
2023/09/14 05:30:09;;;;;;;6.70;2.10;;;;;;;7.78;100.00;101550.75;5032917;28;20426;-77
2023/09/14 05:32:45;;;;;;;8.47;2.43;;;;;;;7.90;100.00;101555.31;5027989;28;20429;-76
2023/09/14 05:35:13;;;;;;;6.32;2.35;;;;;;;8.05;100.00;101557.50;5035905;28;20417;-80
2023/09/14 05:37:41;;;;;;;6.03;2.10;;;;;;;8.11;100.00;101551.94;5033311;28;21087;-77
2023/09/14 05:40:14;;;;;;;5.90;2.33;;;;;;;8.16;100.00;101565.59;5033072;28;20430;-77
2023/09/14 05:42:44;;;;;;;5.35;2.00;;;;;;;8.27;100.00;101568.50;5047438;28;20427;-77
2023/09/14 05:45:13;;;;;;;7.88;2.33;;;;;;;8.30;100.00;101566.13;5033933;28;20802;-77
2023/09/14 05:47:48;;;;;;;7.78;2.22;;;;;;;8.35;100.00;101573.53;5026797;28;20433;-78
2023/09/14 05:50:16;;;;;;;5.10;2.00;;;;;;;8.33;100.00;101573.78;5034137;28;20426;-77
2023/09/14 05:52:44;;;;;;;7.57;2.17;;;;;;;8.39;100.00;101582.03;5041052;28;20415;-76
2023/09/14 05:55:18;;;;;;;5.65;2.05;;;;;;;8.53;100.00;101580.66;5032845;28;20430;-78
2023/09/14 05:57:47;;;;;;;5.82;2.42;;;;;;;8.57;100.00;101586.44;5038280;28;20756;-78
2023/09/14 06:00:21;;;;;;;8.45;2.10;;;;;;;8.65;100.00;101588.75;5029875;28;20438;-79
2023/09/14 06:02:55;;;;;;;6.83;2.50;;;;;;;8.65;100.00;101596.91;5034707;28;20479;-78
2023/09/14 06:05:23;;;;;;;8.03;2.03;;;;;;;8.69;100.00;101603.50;5025445;28;21331;-77
2023/09/14 06:07:57;;;;;;;8.48;2.20;;;;;;;8.71;100.00;101605.94;5030535;28;20418;-78
2023/09/14 06:10:27;;;;;;;5.97;2.13;;;;;;;8.79;100.00;101603.66;5028932;28;20444;-79
2023/09/14 06:13:00;;;;;;;5.82;2.13;;;;;;;8.81;100.00;101598.81;5026426;28;20433;-78
2023/09/14 06:15:28;;;;;;;9.05;2.50;;;;;;;8.84;100.00;101601.03;5032054;28;20410;-79
2023/09/14 06:17:58;;;;;;;8.10;2.20;;;;;;;8.79;100.00;101609.06;5031823;28;20500;-78
2023/09/14 06:20:26;;;;;;;7.40;2.50;;;;;;;8.94;100.00;101605.81;5028317;28;20435;-78
2023/09/14 06:22:54;;;;;;;7.83;2.20;;;;;;;8.97;100.00;101613.44;5029023;28;20826;-78
2023/09/14 06:25:23;;;;;;;8.40;2.20;;;;;;;9.02;100.00;101610.03;5032638;28;20430;-77
2023/09/14 06:27:51;;;;;;;7.63;2.30;;;;;;;8.98;100.00;101608.88;5031210;28;20949;-78
2023/09/14 06:30:24;;;;;;;8.52;2.40;;;;;;;9.06;100.00;101619.31;5031356;28;20427;-78
2023/09/14 06:32:59;;;;;;;5.50;1.95;;;;;;;9.12;100.00;101618.31;5026713;28;20446;-80
2023/09/14 06:35:32;;;;;;;7.07;2.33;;;;;;;9.17;100.00;101615.69;5032498;28;20427;-79
2023/09/14 06:38:05;;;;;;;5.90;2.13;;;;;;;9.24;100.00;101626.41;5032390;28;20430;-78
2023/09/14 06:40:33;;;;;;;6.18;2.17;;;;;;;9.43;100.00;101628.84;5029041;28;20442;-78
2023/09/14 06:43:07;;;;;;;8.50;2.20;;;;;;;9.54;100.00;101641.50;5030085;28;20419;-79
2023/09/14 06:45:35;;;;;;;6.35;2.00;;;;;;;9.72;100.00;101623.28;5029384;28;20438;-81
2023/09/14 06:48:09;;;;;;;7.28;2.10;;;;;;;9.62;100.00;101637.53;5030201;28;20461;-81
2023/09/14 06:50:38;;;;;;;8.23;2.10;;;;;;;9.68;100.00;101631.94;5027213;28;20441;-78
2023/09/14 06:53:06;;;;;;;8.23;2.40;;;;;;;9.60;100.00;101624.22;5030552;28;20431;-82
2023/09/14 06:55:38;;;;;;;7.23;2.00;;;;;;;9.70;100.00;101635.22;5036747;28;20893;-79
2023/09/14 06:58:11;;;;;;;7.63;2.17;;;;;;;9.96;100.00;101627.41;5019830;28;20417;-82
2023/09/14 07:00:39;;;;;;;7.32;2.22;;;;;;;9.87;100.00;101623.47;5028455;28;20791;-79
2023/09/14 07:03:14;;;;;;;5.07;1.95;;;;;;;9.91;100.00;101631.97;5032134;28;20469;-79
2023/09/14 07:05:47;;;;;;;5.60;2.15;;;;;;;10.00;100.00;101639.44;5028477;28;20426;-80
2023/09/14 07:08:20;;;;;;;5.07;2.10;;;;;;;10.08;100.00;101635.47;5042325;28;20427;-78
2023/09/14 07:10:48;;;;;;;6.32;1.90;;;;;;;10.11;100.00;101634.94;5029256;28;20422;-79
2023/09/14 07:13:17;;;;;;;6.97;2.10;;;;;;;10.19;100.00;101647.25;5030085;28;20423;-79
2023/09/14 07:15:51;;;;;;;4.97;1.70;;;;;;;10.38;100.00;101650.50;5030794;28;20887;-81
2023/09/14 07:18:28;;;;;;;5.32;1.77;;;;;;;10.37;100.00;101649.69;5010336;28;20434;-80
2023/09/14 07:20:58;;;;;;;4.63;2.00;;;;;;;10.37;100.00;101648.88;5001484;28;20427;-82
2023/09/14 07:23:31;;;;;;;7.03;1.92;;;;;;;10.49;100.00;101657.72;5019141;28;20431;-82
2023/09/14 07:26:07;;;;;;;6.90;2.17;;;;;;;10.82;100.00;101652.34;5007267;28;20427;-81
2023/09/14 07:28:40;;;;;;;5.20;1.87;;;;;;;10.70;100.00;101658.78;5006352;28;20439;-82
2023/09/14 07:31:13;;;;;;;7.40;2.00;;;;;;;10.79;100.00;101670.00;5004534;28;20442;-80
2023/09/14 07:33:45;;;;;;;5.00;2.10;;;;;;;10.96;100.00;101671.81;5006830;28;20434;-82
2023/09/14 07:36:20;;;;;;;4.70;1.80;;;;;;;10.95;100.00;101678.31;5006235;28;20431;-81
2023/09/14 07:38:54;;;;;;;4.15;1.80;;;;;;;11.26;100.00;101673.16;5025346;28;20427;-82
2023/09/14 07:41:22;;;;;;;3.83;1.80;;;;;;;11.19;100.00;101676.91;5017634;28;20435;-81
2023/09/14 07:43:55;;;;;;;3.88;1.70;;;;;;;11.49;100.00;101670.06;5009678;28;20471;-82
2023/09/14 07:46:23;;;;;;;6.07;1.80;;;;;;;11.74;100.00;101663.97;5003174;28;22027;-82
2023/09/14 07:48:58;;;;;;;5.60;1.73;;;;;;;11.89;100.00;101679.59;5002901;28;20420;-79
2023/09/14 07:51:31;;;;;;;5.28;2.00;;;;;;;12.00;100.00;101677.78;5029569;28;20453;-78
2023/09/14 07:54:00;;;;;;;6.72;1.80;;;;;;;11.94;100.00;101678.00;5031522;28;20930;-80
2023/09/14 07:56:33;;;;;;;5.35;1.67;;;;;;;11.94;100.00;101676.09;5002160;28;20435;-80
2023/09/14 07:59:06;;;;;;;6.00;1.90;;;;;;;11.87;100.00;101678.22;5001314;28;20431;-82
2023/09/14 08:01:39;;;;;;;5.18;1.80;;;;;;;11.94;100.00;101691.63;5004622;28;20435;-83
2023/09/14 08:04:09;;;;;;;5.60;1.73;;;;;;;11.97;100.00;101686.47;5011270;28;21158;-83
2023/09/14 08:06:37;;;;;;;6.30;2.78;;;;;;;11.99;100.00;101687.03;5008479;28;20464;-83
2023/09/14 08:09:05;;;;;;;6.13;1.75;;;;;;;12.05;100.00;101679.72;5005196;28;21424;-83
2023/09/14 08:11:39;;;;;;;3.78;1.45;;;;;;;12.06;100.00;101690.34;5008606;28;20419;-83
2023/09/14 08:14:12;;;;;;;5.38;1.88;;;;;;;12.17;100.00;101691.22;5007109;28;20427;-81
2023/09/14 08:16:45;;;;;;;4.82;1.80;;;;;;;12.12;100.00;101698.56;5027771;28;20430;-80
2023/09/14 08:19:20;;;;;;;5.40;1.35;;;;;;;12.37;100.00;101697.84;5018809;28;20435;-82
2023/09/14 08:21:53;;;;;;;3.90;1.40;;;;;;;12.43;100.00;101699.53;5009969;28;20465;-83
2023/09/14 08:24:21;;;;;;;6.05;1.50;;;;;;;12.24;100.00;101712.81;4994680;28;20438;-83
2023/09/14 08:26:54;;;;;;;3.53;1.50;;;;;;;12.21;100.00;101711.44;5010334;28;20499;-81
2023/09/14 08:29:29;;;;;;;5.63;1.40;;;;;;;12.24;100.00;101715.56;5011395;28;20431;-81
2023/09/14 08:31:58;;;;;;;7.07;1.63;;;;;;;12.38;100.00;101708.50;5002007;28;20431;-83
2023/09/14 08:34:27;;;;;;;3.95;1.40;;;;;;;12.50;100.00;101710.22;5003817;28;20440;-83
2023/09/14 08:37:01;;;;;;;4.95;1.40;;;;;;;12.93;100.00;101710.88;5005190;28;20430;-82
2023/09/14 08:39:29;;;;;;;3.10;1.40;;;;;;;12.77;100.00;101712.72;5004717;28;20431;-82
2023/09/14 08:42:03;;;;;;;4.82;1.50;;;;;;;13.09;100.00;101711.69;5007459;28;20478;-83
2023/09/14 08:44:36;;;;;;;3.28;1.23;;;;;;;12.90;100.00;101717.69;5008846;28;20834;-82
2023/09/14 08:47:11;;;;;;;2.83;1.20;;;;;;;13.21;100.00;101722.38;5004544;28;20449;-81
2023/09/14 08:49:47;;;;;;;4.78;1.55;;;;;;;13.29;100.00;101721.84;5006543;28;20423;-82
2023/09/14 08:52:19;;;;;;;3.80;1.20;;;;;;;13.26;100.00;101717.72;5005768;28;20470;-82
2023/09/14 08:54:54;;;;;;;9.63;1.67;;;;;;;13.50;100.00;101716.41;5020699;28;20443;-82
2023/09/14 08:57:22;;;;;;;3.78;1.25;;;;;;;13.57;100.00;101717.75;5008098;28;20441;-81
2023/09/14 08:59:51;;;;;;;5.55;1.30;;;;;;;13.46;100.00;101718.84;5007728;28;20426;-82
2023/09/14 09:02:27;;;;;;;4.68;1.42;;;;;;;13.76;100.00;101719.94;5007378;28;20449;-80
2023/09/14 09:04:57;;;;;;;3.40;1.43;;;;;;;13.58;100.00;101722.13;5003511;28;20438;-84
2023/09/14 09:07:25;;;;;;;6.75;1.30;;;;;;;13.50;100.00;101713.66;5010515;28;20427;-83
2023/09/14 09:09:59;;;;;;;2.25;1.10;;;;;;;13.56;100.00;101715.28;5004827;28;20457;-83
2023/09/14 09:12:32;;;;;;;3.57;1.40;;;;;;;13.35;100.00;101709.81;5018848;28;20435;-83
2023/09/14 09:15:07;;;;;;;5.15;1.75;;;;;;;13.71;100.00;101720.78;5005823;28;20423;-82
2023/09/14 09:17:41;;;;;;;4.82;1.38;;;;;;;13.77;100.00;101708.72;5012580;28;20961;-81
2023/09/14 09:20:22;;;;;;;4.25;1.50;;;;;;;13.61;100.00;101705.16;4988598;28;20434;-82
2023/09/14 09:22:51;;;;;;;4.68;1.55;;;;;;;13.63;100.00;101712.28;5016719;28;20427;-85
2023/09/14 09:25:21;;;;;;;3.93;1.40;;;;;;;13.76;100.00;101711.72;5001011;28;20414;-84
2023/09/14 09:27:57;;;;;;;4.15;1.30;;;;;;;13.69;100.00;101708.47;5005267;28;21348;-81
2023/09/14 09:30:30;;;;;;;4.18;1.40;;;;;;;13.75;100.00;101710.09;5011931;28;20438;-84
2023/09/14 09:33:04;;;;;;;3.90;1.23;;;;;;;13.78;100.00;101701.31;5002962;28;20431;-84
2023/09/14 09:35:35;;;;;;;4.32;1.55;;;;;;;13.79;100.00;101700.22;5022555;28;21430;-81
2023/09/14 09:38:14;;;;;;;4.53;1.27;;;;;;;14.01;100.00;101710.03;5013459;28;20403;-82
2023/09/14 09:40:44;;;;;;;4.33;1.40;;;;;;;14.11;100.00;101708.09;5008045;28;20430;-82
2023/09/14 09:43:17;;;;;;;4.95;1.20;;;;;;;14.06;100.00;101719.06;5007278;28;20437;-81
2023/09/14 09:45:47;;;;;;;3.20;0.90;;;;;;;14.21;100.00;101711.88;5005469;28;20438;-82
2023/09/14 09:48:15;;;;;;;2.33;0.95;;;;;;;14.08;100.00;101710.56;5007932;28;20430;-84
2023/09/14 09:50:50;;;;;;;4.00;0.80;;;;;;;13.94;100.00;101715.81;5005452;28;21096;-81
2023/09/14 09:53:23;;;;;;;5.38;0.90;;;;;;;14.01;100.00;101713.59;5008924;28;20427;-83
2023/09/14 09:55:52;;;;;;;4.78;0.95;;;;;;;14.05;100.00;101717.41;5011748;28;21224;-84
2023/09/14 09:58:34;;;;;;;3.50;0.93;;;;;;;14.16;100.00;101709.19;5007599;28;20419;-85
2023/09/14 10:01:03;;;;;;;6.53;1.40;;;;;;;14.35;100.00;101715.69;5005948;28;20431;-84
2023/09/14 10:03:36;;;;;;;3.60;0.80;;;;;;;14.37;100.00;101718.94;5009926;28;20655;-80
2023/09/14 10:06:11;;;;;;;4.18;0.93;;;;;;;14.44;100.00;101713.16;5024922;28;20423;-85
2023/09/14 10:08:39;;;;;;;4.70;1.00;;;;;;;14.35;100.00;101712.94;5009013;28;20481;-82
2023/09/14 10:11:08;;;;;;;3.55;1.02;;;;;;;14.48;100.00;101714.25;5009661;28;20438;-85
2023/09/14 10:13:36;;;;;;;4.63;0.80;;;;;;;14.31;100.00;101724.72;5008643;28;20989;-81
2023/09/14 10:16:04;;;;;;;3.38;1.00;;;;;;;14.40;100.00;101714.81;5008942;28;20439;-84
2023/09/14 10:18:38;;;;;;;4.05;0.90;;;;;;;14.37;100.00;101713.47;4994098;28;20446;-83
2023/09/14 10:21:07;;;;;;;4.25;0.80;;;;;;;14.42;100.00;101712.66;5005206;28;20446;-84
2023/09/14 10:23:43;;;;;;;5.15;1.10;;;;;;;14.27;100.00;101714.31;5005918;28;20427;-85
2023/09/14 10:26:17;;;;;;;6.47;1.00;;;;;;;14.30;100.00;101710.22;5012661;28;20910;-85
2023/09/14 10:28:50;;;;;;;2.42;0.80;;;;;;;14.50;100.00;101719.44;5013396;28;20418;-84
2023/09/14 10:31:25;;;;;;;5.93;1.00;;;;;;;14.63;100.00;101711.44;5010958;28;20443;-84
2023/09/14 10:34:00;;;;;;;4.28;0.80;;;;;;;14.71;100.00;101712.00;5007559;28;20795;-83
2023/09/14 10:36:30;;;;;;;3.35;0.90;;;;;;;14.71;100.00;101707.31;5024093;28;20907;-83
2023/09/14 10:39:01;;;;;;;5.18;1.05;;;;;;;14.70;100.00;101713.09;5013595;28;20510;-82
2023/09/14 10:41:34;;;;;;;4.43;0.90;;;;;;;14.82;100.00;101705.34;5011943;28;20473;-84
2023/09/14 10:44:03;;;;;;;4.65;1.30;;;;;;;14.95;100.00;101703.88;5015051;28;21207;-82
2023/09/14 10:46:42;;;;;;;3.33;0.80;;;;;;;14.78;100.00;101705.06;5016934;28;20939;-81
2023/09/14 10:49:10;;;;;;;2.50;0.82;;;;;;;14.74;100.00;101705.94;5013886;28;20958;-84
2023/09/14 10:51:45;;;;;;;5.00;1.00;;;;;;;14.52;100.00;101709.03;5009261;28;20423;-80
2023/09/14 10:54:14;;;;;;;4.30;1.00;;;;;;;14.60;100.00;101701.03;5009063;28;20423;-82
2023/09/14 10:56:43;;;;;;;6.45;1.15;;;;;;;14.74;100.00;101704.00;5017208;28;20478;-90
2023/09/14 10:59:11;;;;;;;4.18;1.10;;;;;;;14.73;100.00;101705.09;5010558;28;20419;-81
2023/09/14 11:01:46;;;;;;;3.85;1.13;;;;;;;14.81;100.00;101709.19;5016299;28;20788;-82
2023/09/14 11:04:20;;;;;;;5.28;1.10;;;;;;;14.85;100.00;101704.75;5000958;28;20431;-83
2023/09/14 11:06:50;;;;;;;3.63;0.93;;;;;;;15.02;100.00;101700.81;5001771;28;20514;-81
2023/09/14 11:09:21;;;;;;;4.13;0.90;;;;;;;15.14;100.00;101698.53;5002691;28;20426;-84
2023/09/14 11:11:54;;;;;;;3.53;1.00;;;;;;;14.87;100.00;101708.03;5006183;28;20454;-81
2023/09/14 11:14:28;;;;;;;2.05;0.75;;;;;;;15.05;100.00;101703.81;5003195;28;20454;-81
2023/09/14 11:16:58;;;;;;;6.57;0.93;;;;;;;15.08;100.00;101705.16;5001476;28;20791;-82
2023/09/14 11:19:48;;;;;;;5.67;1.03;;;;;;;15.32;100.00;101701.72;4988698;28;20419;-80
2023/09/14 11:22:25;;;;;;;3.58;1.00;;;;;;;15.36;100.00;101708.25;4996990;28;20435;-84
2023/09/14 11:25:00;;;;;;;4.40;0.80;;;;;;;15.27;100.00;101703.38;5003221;28;20435;-81
2023/09/14 11:27:33;;;;;;;3.33;1.00;;;;;;;15.27;100.00;101706.13;5005328;28;20430;-80
2023/09/14 11:30:14;;;;;;;3.67;0.90;;;;;;;15.19;100.00;101697.66;5018852;28;20435;-83
2023/09/14 11:32:48;;;;;;;4.00;0.82;;;;;;;14.93;100.00;101701.44;5005986;28;20442;-83
2023/09/14 11:35:33;;;;;;;4.50;1.08;;;;;;;14.91;100.00;101695.41;5009448;28;20431;-86
2023/09/14 11:38:03;;;;;;;3.40;0.90;;;;;;;14.74;100.00;101692.25;5009767;28;20438;-83
2023/09/14 11:40:34;;;;;;;3.50;1.05;;;;;;;14.74;100.00;101694.97;5008682;28;20438;-82
2023/09/14 11:43:25;;;;;;;4.85;0.90;;;;;;;14.95;100.00;101698.41;5007481;28;20445;-83